Time;durP1;ratioP1;P1;durP2;ratioP2;P2;SDS_P1;SDS_P2;PMS_P1;PMS_P2;Temp;Humidity;BMP_temperature;BMP_pressure;BME280_temperature;BME280_humidity;BME280_pressure;Samples;Min_cycle;Max_cycle;Signal;HPM_P1;HPM_P2
2022/03/13 00:00:41;;;;;;;0.80;0.73;;;4.20;74.40;;;;;;5055788;28;20852;-82
2022/03/13 00:03:10;;;;;;;0.50;0.50;;;4.10;74.80;;;;;;5035721;28;20481;-82
2022/03/13 00:05:40;;;;;;;1.90;1.90;;;4.10;75.90;;;;;;5055693;28;20453;-82
2022/03/13 00:08:18;;;;;;;2.00;1.37;;;4.10;75.40;;;;;;5055844;28;20473;-82
2022/03/13 00:10:47;;;;;;;0.83;0.83;;;4.00;75.20;;;;;;5055678;28;20567;-82
2022/03/13 00:13:20;;;;;;;1.17;1.17;;;4.00;75.40;;;;;;5055610;28;21027;-82
2022/03/13 00:15:51;;;;;;;0.30;0.30;;;4.00;76.10;;;;;;5055995;28;20530;-82
2022/03/13 00:18:18;;;;;;;0.40;0.40;;;4.00;76.40;;;;;;5056213;28;20521;-82
2022/03/13 00:20:45;;;;;;;0.90;0.40;;;4.00;76.30;;;;;;5056103;28;20804;-82
2022/03/13 00:23:12;;;;;;;0.77;0.63;;;4.00;76.20;;;;;;5055572;28;20465;-82
2022/03/13 00:25:40;;;;;;;0.70;0.70;;;3.90;76.50;;;;;;5055579;28;20441;-82
2022/03/13 00:28:07;;;;;;;0.40;0.40;;;3.90;76.40;;;;;;5055634;28;20462;-82
2022/03/13 00:30:35;;;;;;;0.47;0.47;;;3.90;75.70;;;;;;5055796;28;20504;-82
2022/03/13 00:33:04;;;;;;;0.30;0.30;;;3.90;75.10;;;;;;5055482;28;20496;-82
2022/03/13 00:35:30;;;;;;;0.30;0.30;;;3.90;75.10;;;;;;5055417;28;20489;-82
2022/03/13 00:37:57;;;;;;;8.30;1.23;;;3.90;75.20;;;;;;5055034;28;20481;-82
2022/03/13 00:40:25;;;;;;;0.80;0.80;;;3.90;75.00;;;;;;5055040;28;20944;-82
2022/03/13 00:42:51;;;;;;;0.50;0.50;;;3.90;74.00;;;;;;5055327;28;20449;-82
2022/03/13 00:45:18;;;;;;;0.70;0.70;;;3.90;73.90;;;;;;5054949;28;20449;-82
2022/03/13 00:47:45;;;;;;;4.07;2.30;;;4.00;73.00;;;;;;5055102;28;20461;-82
2022/03/13 00:50:13;;;;;;;0.40;0.40;;;3.90;73.20;;;;;;5055148;28;20457;-82
2022/03/13 00:52:40;;;;;;;0.50;0.50;;;4.00;73.90;;;;;;5054807;28;20450;-82
2022/03/13 00:55:08;;;;;;;1.03;0.93;;;3.90;73.20;;;;;;5054733;28;20481;-82
2022/03/13 00:57:35;;;;;;;1.30;0.93;;;3.90;73.50;;;;;;5054850;28;20519;-82
2022/03/13 01:00:03;;;;;;;1.40;1.13;;;3.90;72.70;;;;;;5054892;28;20453;-82
2022/03/13 01:02:30;;;;;;;0.30;0.30;;;3.90;72.90;;;;;;5054907;28;20446;-82
2022/03/13 01:04:56;;;;;;;0.67;0.67;;;3.90;72.30;;;;;;5054570;28;20441;-82
2022/03/13 01:07:25;;;;;;;0.57;0.30;;;3.80;72.40;;;;;;5054765;28;20474;-82
2022/03/13 01:09:52;;;;;;;0.40;0.30;;;3.80;73.00;;;;;;5054818;28;20451;-82
2022/03/13 01:12:18;;;;;;;1.77;1.67;;;3.80;73.10;;;;;;5054336;28;20466;-82
2022/03/13 01:14:46;;;;;;;0.30;0.30;;;3.70;73.40;;;;;;5054726;28;20426;-82
2022/03/13 01:17:13;;;;;;;1.13;1.03;;;3.60;73.80;;;;;;5054542;28;20536;-82
2022/03/13 01:19:40;;;;;;;0.70;0.70;;;3.60;73.40;;;;;;5054478;28;20477;-82
2022/03/13 01:22:07;;;;;;;0.80;0.70;;;3.50;73.10;;;;;;5054531;28;20446;-82
2022/03/13 01:24:44;;;;;;;0.30;0.30;;;3.50;72.80;;;;;;5054481;28;20450;-82
2022/03/13 01:27:12;;;;;;;0.30;0.20;;;3.50;72.00;;;;;;5054932;28;20823;-82
2022/03/13 01:29:39;;;;;;;0.80;0.80;;;3.50;72.30;;;;;;5054288;28;20489;-82
2022/03/13 01:32:09;;;;;;;1.17;1.17;;;3.40;72.40;;;;;;5054363;28;20532;-82
2022/03/13 01:34:47;;;;;;;0.90;0.70;;;3.40;73.90;;;;;;5054014;28;20960;-82
2022/03/13 01:37:31;;;;;;;0.40;0.33;;;3.40;74.00;;;;;;5054146;28;20426;-82
2022/03/13 01:40:01;;;;;;;1.83;0.33;;;3.40;74.60;;;;;;5052250;28;20450;-82
2022/03/13 01:42:28;;;;;;;1.13;1.13;;;3.40;75.60;;;;;;5054226;28;20462;-82
2022/03/13 01:44:55;;;;;;;0.57;0.50;;;3.40;75.30;;;;;;5054040;28;20483;-82
2022/03/13 01:47:23;;;;;;;0.40;0.40;;;3.40;74.90;;;;;;5053755;28;20438;-82
2022/03/13 01:49:51;;;;;;;0.40;0.40;;;3.40;75.20;;;;;;5054009;28;20482;-82
2022/03/13 01:52:21;;;;;;;1.73;1.73;;;3.40;74.40;;;;;;5053938;28;20449;-82
2022/03/13 01:54:48;;;;;;;1.37;0.93;;;3.40;74.60;;;;;;5054081;28;20792;-82
2022/03/13 01:57:18;;;;;;;1.13;1.00;;;3.30;74.70;;;;;;5053822;28;20445;-82
2022/03/13 01:59:46;;;;;;;0.40;0.40;;;3.30;74.40;;;;;;5053599;28;20430;-82
2022/03/13 02:02:13;;;;;;;0.80;0.57;;;3.30;75.00;;;;;;5054036;28;20499;-82
2022/03/13 02:04:41;;;;;;;0.73;0.73;;;3.20;75.00;;;;;;5053414;28;20457;-81
2022/03/13 02:07:07;;;;;;;0.67;0.67;;;3.20;75.40;;;;;;5053030;28;20457;-82
2022/03/13 02:09:35;;;;;;;0.40;0.40;;;3.20;76.00;;;;;;5053726;28;20492;-82
2022/03/13 02:12:05;;;;;;;0.37;0.37;;;3.10;76.50;;;;;;5053463;28;20528;-82
2022/03/13 02:14:34;;;;;;;0.30;0.30;;;3.10;76.70;;;;;;5053538;28;20470;-82
2022/03/13 02:17:01;;;;;;;0.50;0.50;;;3.10;76.10;;;;;;5053475;28;20522;-82
2022/03/13 02:19:27;;;;;;;0.63;0.63;;;3.10;76.60;;;;;;5053221;28;20448;-82
2022/03/13 02:21:55;;;;;;;0.60;0.60;;;3.20;76.50;;;;;;5053440;28;20450;-82
2022/03/13 02:24:25;;;;;;;0.63;0.63;;;3.20;76.70;;;;;;5053190;28;20975;-82
2022/03/13 02:27:01;;;;;;;0.70;0.60;;;3.20;76.20;;;;;;5053463;28;20509;-83
2022/03/13 02:29:29;;;;;;;1.27;1.27;;;3.20;75.80;;;;;;5053427;28;20469;-82
2022/03/13 02:31:57;;;;;;;0.50;0.50;;;3.20;75.20;;;;;;5053360;28;20480;-82
2022/03/13 02:34:25;;;;;;;0.70;0.70;;;3.30;75.50;;;;;;5053041;28;20453;-82
2022/03/13 02:37:01;;;;;;;1.57;0.60;;;3.30;75.30;;;;;;5053337;28;20453;-82
2022/03/13 02:39:35;;;;;;;1.20;1.20;;;3.30;75.60;;;;;;5053452;28;20491;-82
2022/03/13 02:42:04;;;;;;;0.60;0.60;;;3.40;76.50;;;;;;5053390;28;20434;-81
2022/03/13 02:44:31;;;;;;;0.30;0.30;;;3.40;76.90;;;;;;5053244;28;20453;-82
2022/03/13 02:47:01;;;;;;;1.57;1.20;;;3.50;77.00;;;;;;5052971;28;20430;-82
2022/03/13 02:49:30;;;;;;;1.43;1.40;;;3.60;76.80;;;;;;5052787;28;20489;-82
2022/03/13 02:51:59;;;;;;;1.00;0.77;;;3.60;77.00;;;;;;5053151;28;20457;-82
2022/03/13 02:54:27;;;;;;;1.83;1.43;;;3.70;77.20;;;;;;5053084;28;20472;-82
2022/03/13 02:56:55;;;;;;;0.30;0.30;;;3.70;77.30;;;;;;5052896;28;20933;-82
2022/03/13 02:59:22;;;;;;;0.30;0.30;;;3.70;77.20;;;;;;5052799;28;20453;-82
2022/03/13 03:01:49;;;;;;;1.00;0.90;;;3.70;77.50;;;;;;5053319;28;20453;-83
2022/03/13 03:04:17;;;;;;;0.73;0.70;;;3.70;77.50;;;;;;5053051;28;20495;-82
2022/03/13 03:06:56;;;;;;;1.00;0.40;;;3.70;77.90;;;;;;5053067;28;20453;-82
2022/03/13 03:09:24;;;;;;;0.73;0.73;;;3.70;78.30;;;;;;5053180;28;20485;-81
2022/03/13 03:11:51;;;;;;;0.70;0.70;;;3.70;79.10;;;;;;5052730;28;20492;-82
2022/03/13 03:14:20;;;;;;;1.33;1.03;;;3.70;79.40;;;;;;5052991;28;20445;-82
2022/03/13 03:16:47;;;;;;;0.50;0.50;;;3.70;80.00;;;;;;5052649;28;20948;-82
2022/03/13 03:19:14;;;;;;;0.60;0.60;;;3.60;81.40;;;;;;5055476;28;20466;-82
2022/03/13 03:21:42;;;;;;;0.60;0.60;;;3.60;81.50;;;;;;5056997;28;20450;-82
2022/03/13 03:24:16;;;;;;;0.50;0.50;;;3.50;80.70;;;;;;5056671;28;20445;-82
2022/03/13 03:26:43;;;;;;;1.13;0.60;;;3.50;81.00;;;;;;5056814;28;20425;-82
2022/03/13 03:29:10;;;;;;;0.30;0.30;;;3.50;81.30;;;;;;5056563;28;20489;-82
2022/03/13 03:31:43;;;;;;;0.30;0.30;;;3.50;81.70;;;;;;5056659;28;20805;-81
2022/03/13 03:34:12;;;;;;;0.47;0.47;;;3.60;81.30;;;;;;5056594;28;20449;-82
2022/03/13 03:36:41;;;;;;;1.50;1.50;;;3.60;81.70;;;;;;5056540;28;20808;-82
2022/03/13 03:39:08;;;;;;;3.30;1.90;;;3.60;82.30;;;;;;5056413;28;20504;-82
2022/03/13 03:41:35;;;;;;;0.40;0.40;;;3.50;83.30;;;;;;5056227;28;20833;-82
2022/03/13 03:44:01;;;;;;;0.80;0.80;;;3.50;83.90;;;;;;5056092;28;20449;-82
2022/03/13 03:46:28;;;;;;;0.60;0.50;;;3.50;84.40;;;;;;5056356;28;20441;-82
2022/03/13 03:48:56;;;;;;;0.50;0.50;;;3.50;85.40;;;;;;5056136;28;20534;-82
2022/03/13 03:51:23;;;;;;;1.60;0.70;;;3.40;86.10;;;;;;5056503;28;20453;-82
2022/03/13 03:53:50;;;;;;;0.50;0.50;;;3.40;86.90;;;;;;5056224;28;20453;-82
2022/03/13 03:56:17;;;;;;;0.50;0.50;;;3.30;87.50;;;;;;5056262;28;20434;-82
2022/03/13 03:58:43;;;;;;;0.80;0.80;;;3.30;88.80;;;;;;5056037;28;20458;-82
2022/03/13 04:01:10;;;;;;;0.50;0.40;;;3.20;89.80;;;;;;5056118;28;20474;-82
2022/03/13 04:03:38;;;;;;;0.43;0.40;;;3.20;90.30;;;;;;5055920;28;20481;-82
2022/03/13 04:06:06;;;;;;;0.30;0.30;;;3.20;90.90;;;;;;5056016;28;20457;-82
2022/03/13 04:08:33;;;;;;;0.67;0.67;;;3.10;91.40;;;;;;5055815;28;20465;-82
2022/03/13 04:11:00;;;;;;;0.97;0.97;;;3.10;91.70;;;;;;5056084;28;20863;-82
2022/03/13 04:13:28;;;;;;;0.73;0.73;;;3.10;92.10;;;;;;5055808;28;20454;-82
2022/03/13 04:15:55;;;;;;;0.50;0.50;;;3.00;92.50;;;;;;5055868;28;20458;-82
2022/03/13 04:18:22;;;;;;;1.17;1.07;;;3.00;93.00;;;;;;5055365;28;20999;-82
2022/03/13 04:20:49;;;;;;;0.40;0.40;;;3.00;93.40;;;;;;5055692;28;20446;-82
2022/03/13 04:23:17;;;;;;;0.30;0.30;;;2.90;93.70;;;;;;5055723;28;20458;-82
2022/03/13 04:25:44;;;;;;;1.37;0.53;;;2.90;94.40;;;;;;5055684;28;20446;-82
2022/03/13 04:28:11;;;;;;;0.60;0.60;;;2.90;94.90;;;;;;5055888;28;20834;-82
2022/03/13 04:30:39;;;;;;;0.30;0.30;;;2.90;95.30;;;;;;5054443;28;20481;-82
2022/03/13 04:33:07;;;;;;;0.90;0.90;;;2.90;95.50;;;;;;5055540;28;20511;-82
2022/03/13 04:35:34;;;;;;;0.30;0.30;;;2.90;95.90;;;;;;5055444;28;20453;-82
2022/03/13 04:38:00;;;;;;;1.13;1.13;;;2.80;96.20;;;;;;5055303;28;20474;-82
2022/03/13 04:40:29;;;;;;;0.30;0.30;;;2.80;96.40;;;;;;5055372;28;20449;-82
2022/03/13 04:42:55;;;;;;;0.50;0.50;;;2.80;96.50;;;;;;5055327;28;20434;-82
2022/03/13 04:45:26;;;;;;;0.30;0.27;;;2.70;97.20;;;;;;5055334;28;20484;-83
2022/03/13 04:47:53;;;;;;;0.30;0.30;;;2.70;97.50;;;;;;5055469;28;20516;-82
2022/03/13 04:50:20;;;;;;;0.43;0.33;;;2.70;98.00;;;;;;5055071;28;20481;-82
2022/03/13 04:52:47;;;;;;;0.30;0.30;;;2.60;98.70;;;;;;5055283;28;20454;-82
2022/03/13 04:55:14;;;;;;;0.83;0.40;;;2.60;99.30;;;;;;5055116;28;20481;-82
2022/03/13 04:57:42;;;;;;;0.40;0.40;;;2.60;99.90;;;;;;5054635;28;20973;-82
2022/03/13 05:00:09;;;;;;;0.87;0.87;;;2.60;99.90;;;;;;5054838;28;20945;-82
2022/03/13 05:02:37;;;;;;;0.93;0.93;;;2.60;99.90;;;;;;5054725;28;20433;-82
2022/03/13 05:05:04;;;;;;;0.30;0.30;;;2.60;99.90;;;;;;5054941;28;20503;-82
2022/03/13 05:07:31;;;;;;;0.50;0.50;;;2.60;99.90;;;;;;5054467;28;20980;-82
2022/03/13 05:09:58;;;;;;;7.93;1.13;;;2.60;99.90;;;;;;5055215;28;20474;-83
2022/03/13 05:12:27;;;;;;;0.37;0.37;;;2.50;99.90;;;;;;5054333;28;21046;-83
2022/03/13 05:14:55;;;;;;;0.50;0.50;;;2.50;99.90;;;;;;5054772;28;20457;-83
2022/03/13 05:17:22;;;;;;;0.30;0.30;;;2.50;99.90;;;;;;5055109;28;20497;-83
2022/03/13 05:19:49;;;;;;;0.83;0.83;;;2.50;99.90;;;;;;5054862;28;20442;-82
2022/03/13 05:22:16;;;;;;;0.30;0.30;;;2.50;99.90;;;;;;5054558;28;20503;-83
2022/03/13 05:24:43;;;;;;;0.40;0.40;;;2.40;99.90;;;;;;5054570;28;20544;-83
2022/03/13 05:27:10;;;;;;;0.43;0.43;;;2.40;99.90;;;;;;5054189;28;20457;-83
2022/03/13 05:29:37;;;;;;;0.43;0.40;;;2.40;99.90;;;;;;5054238;28;20481;-83
2022/03/13 05:32:05;;;;;;;0.60;0.60;;;2.40;99.90;;;;;;5054379;28;20545;-82
2022/03/13 05:34:32;;;;;;;0.67;0.67;;;2.40;99.90;;;;;;5054109;28;20454;-82
2022/03/13 05:36:59;;;;;;;0.33;0.33;;;2.30;99.90;;;;;;5053931;28;20424;-83
2022/03/13 05:39:26;;;;;;;0.40;0.40;;;2.40;99.90;;;;;;5054167;28;20889;-83
2022/03/13 05:41:53;;;;;;;0.40;0.40;;;2.30;99.90;;;;;;5052990;28;20466;-82
2022/03/13 05:44:20;;;;;;;0.30;0.30;;;2.30;99.90;;;;;;5053877;28;20454;-83
2022/03/13 05:46:48;;;;;;;0.67;0.67;;;2.30;99.90;;;;;;5054552;28;20481;-82
2022/03/13 05:49:16;;;;;;;1.53;1.07;;;2.30;99.90;;;;;;5054251;28;20481;-83
2022/03/13 05:51:43;;;;;;;1.00;1.00;;;2.20;99.90;;;;;;5053821;28;20445;-83
2022/03/13 05:54:10;;;;;;;1.17;1.17;;;2.20;99.90;;;;;;5053700;28;20959;-82
2022/03/13 05:56:37;;;;;;;0.30;0.30;;;2.20;99.90;;;;;;5054095;28;20434;-83
2022/03/13 05:59:04;;;;;;;0.30;0.30;;;2.10;99.90;;;;;;5053480;28;20985;-83
2022/03/13 06:01:30;;;;;;;0.40;0.40;;;2.10;99.90;;;;;;5053819;28;20445;-83
2022/03/13 06:03:57;;;;;;;0.30;0.30;;;2.20;99.90;;;;;;5053495;28;20457;-83
2022/03/13 06:06:25;;;;;;;0.60;0.60;;;2.20;99.90;;;;;;5053780;28;20446;-83
2022/03/13 06:08:52;;;;;;;0.50;0.50;;;2.20;99.90;;;;;;5053378;28;21038;-83
2022/03/13 06:11:19;;;;;;;0.60;0.60;;;2.30;99.90;;;;;;5053372;28;20493;-83
2022/03/13 06:13:45;;;;;;;0.83;0.83;;;2.30;99.90;;;;;;5053618;28;20457;-83
2022/03/13 06:16:12;;;;;;;0.33;0.33;;;2.40;99.90;;;;;;5053686;28;20903;-83
2022/03/13 06:18:39;;;;;;;0.50;0.50;;;2.40;99.90;;;;;;5053178;28;20470;-83
2022/03/13 06:21:06;;;;;;;0.30;0.30;;;2.70;99.90;;;;;;5053489;28;20434;-83
2022/03/13 06:23:34;;;;;;;0.40;0.40;;;3.20;99.90;;;;;;5053533;28;20523;-83
2022/03/13 06:26:01;;;;;;;0.30;0.30;;;3.90;99.90;;;;;;5053212;28;20445;-83
2022/03/13 06:28:28;;;;;;;0.43;0.43;;;4.60;99.90;;;;;;5053387;28;20474;-83
2022/03/13 06:30:55;;;;;;;1.57;1.57;;;5.00;98.90;;;;;;5053039;28;20475;-83
2022/03/13 06:33:22;;;;;;;1.13;0.60;;;5.40;97.90;;;;;;5053214;28;20442;-83
2022/03/13 06:35:49;;;;;;;0.40;0.40;;;5.40;97.00;;;;;;5053061;28;20450;-83
2022/03/13 06:38:16;;;;;;;0.40;0.40;;;5.20;96.30;;;;;;5052946;28;20980;-83
2022/03/13 06:40:44;;;;;;;0.40;0.40;;;4.90;96.50;;;;;;5053255;28;20450;-83
2022/03/13 06:43:11;;;;;;;0.30;0.30;;;4.70;96.60;;;;;;5053016;28;20998;-83
2022/03/13 06:45:38;;;;;;;1.60;1.03;;;4.40;97.40;;;;;;5053296;28;20872;-83
2022/03/13 06:48:05;;;;;;;0.30;0.30;;;4.20;98.10;;;;;;5052862;28;20999;-83
2022/03/13 06:50:32;;;;;;;0.33;0.33;;;4.20;97.90;;;;;;5053101;28;20559;-83
2022/03/13 06:53:00;;;;;;;0.80;0.73;;;4.10;99.00;;;;;;5053738;28;20446;-83
2022/03/13 06:55:27;;;;;;;0.80;0.53;;;4.00;99.40;;;;;;5057346;28;20827;-83
2022/03/13 06:57:55;;;;;;;0.60;0.60;;;4.00;99.60;;;;;;5057552;28;20508;-83
2022/03/13 07:00:23;;;;;;;0.73;0.73;;;4.10;99.70;;;;;;5057290;28;20450;-83
2022/03/13 07:02:50;;;;;;;0.63;0.63;;;4.10;99.90;;;;;;5057085;28;20548;-83
2022/03/13 07:05:19;;;;;;;0.30;0.30;;;4.10;99.90;;;;;;5057276;28;20446;-83
2022/03/13 07:07:46;;;;;;;0.40;0.30;;;4.10;99.90;;;;;;5057216;28;20556;-83
2022/03/13 07:10:12;;;;;;;0.57;0.57;;;4.20;99.90;;;;;;5056689;28;20473;-82
2022/03/13 07:12:40;;;;;;;3.87;2.13;;;4.20;99.60;;;;;;5057094;28;20434;-83
2022/03/13 07:15:13;;;;;;;0.30;0.30;;;4.20;99.00;;;;;;5056806;28;20823;-83
2022/03/13 07:17:41;;;;;;;1.27;1.10;;;4.30;99.00;;;;;;5056894;28;20504;-83
2022/03/13 07:20:09;;;;;;;3.63;0.80;;;4.30;99.00;;;;;;5056974;28;20863;-83
2022/03/13 07:22:36;;;;;;;0.40;0.40;;;4.40;98.20;;;;;;5056804;28;20437;-83
2022/03/13 07:25:04;;;;;;;0.40;0.37;;;4.40;97.30;;;;;;5056575;28;20455;-83
2022/03/13 07:27:31;;;;;;;0.37;0.30;;;4.40;97.50;;;;;;5056666;28;21024;-83
2022/03/13 07:29:57;;;;;;;0.70;0.70;;;4.40;97.70;;;;;;5056482;28;20548;-82
2022/03/13 07:32:25;;;;;;;0.63;0.43;;;4.40;97.80;;;;;;5056684;28;20453;-83
2022/03/13 07:34:52;;;;;;;0.30;0.30;;;4.50;97.80;;;;;;5056780;28;20433;-83
2022/03/13 07:37:19;;;;;;;0.50;0.50;;;4.60;98.30;;;;;;5056347;28;20454;-83
2022/03/13 07:39:47;;;;;;;0.50;0.50;;;4.90;97.30;;;;;;5056630;28;20437;-83
2022/03/13 07:42:14;;;;;;;1.17;0.77;;;5.10;96.50;;;;;;5056278;28;20959;-83
2022/03/13 07:44:41;;;;;;;3.93;1.13;;;5.30;95.70;;;;;;5056197;28;20948;-83
2022/03/13 07:47:08;;;;;;;0.40;0.40;;;5.30;96.20;;;;;;5056137;28;20442;-83
2022/03/13 07:49:36;;;;;;;0.83;0.83;;;5.30;96.10;;;;;;5056156;28;20872;-83
2022/03/13 07:52:04;;;;;;;0.60;0.60;;;5.30;96.00;;;;;;5056319;28;20450;-83
2022/03/13 07:54:31;;;;;;;0.67;0.40;;;5.40;96.00;;;;;;5056277;28;20449;-83
2022/03/13 07:56:58;;;;;;;0.40;0.40;;;5.50;95.80;;;;;;5056048;28;20929;-83
2022/03/13 07:59:24;;;;;;;2.20;0.77;;;5.70;95.20;;;;;;5055913;28;20977;-83
2022/03/13 08:01:51;;;;;;;0.37;0.37;;;5.80;94.70;;;;;;5055959;28;20445;-83
2022/03/13 08:04:18;;;;;;;1.23;1.13;;;5.90;94.50;;;;;;5055488;28;20785;-83
2022/03/13 08:06:47;;;;;;;1.63;1.53;;;6.00;94.10;;;;;;5055650;28;20477;-83
2022/03/13 08:09:14;;;;;;;2.20;2.00;;;6.10;93.90;;;;;;5056059;28;20945;-83
2022/03/13 08:11:41;;;;;;;0.53;0.53;;;6.30;93.30;;;;;;5055539;28;20863;-83
2022/03/13 08:14:08;;;;;;;1.30;0.60;;;6.50;92.60;;;;;;5055891;28;20446;-82
2022/03/13 08:16:35;;;;;;;1.07;1.07;;;6.60;92.70;;;;;;5055920;28;20823;-83
2022/03/13 08:19:02;;;;;;;1.37;1.27;;;6.80;91.90;;;;;;5055761;28;20549;-83
2022/03/13 08:21:29;;;;;;;0.67;0.63;;;7.00;91.40;;;;;;5055428;28;20910;-83
2022/03/13 08:23:57;;;;;;;2.57;0.63;;;7.10;91.20;;;;;;5055711;28;20433;-82
2022/03/13 08:26:24;;;;;;;0.80;0.80;;;7.30;90.50;;;;;;5056236;28;20860;-83
2022/03/13 08:28:51;;;;;;;0.57;0.57;;;7.40;90.40;;;;;;5055590;28;20496;-83
2022/03/13 08:31:17;;;;;;;0.80;0.70;;;7.50;90.10;;;;;;5056142;28;21128;-83
2022/03/13 08:33:45;;;;;;;1.57;1.07;;;7.60;89.30;;;;;;5056195;28;20433;-83
2022/03/13 08:36:12;;;;;;;2.13;1.93;;;7.80;90.10;;;;;;5055463;28;20442;-83
2022/03/13 08:38:39;;;;;;;0.80;0.77;;;8.10;89.10;;;;;;5055367;28;20466;-83
2022/03/13 08:41:07;;;;;;;0.90;0.90;;;8.30;88.50;;;;;;5055205;28;20430;-81
2022/03/13 08:43:34;;;;;;;0.50;0.40;;;8.50;87.40;;;;;;5055283;28;20456;-82
2022/03/13 08:46:01;;;;;;;5.80;1.10;;;8.70;86.90;;;;;;5055271;28;20437;-81
2022/03/13 08:48:30;;;;;;;2.93;1.10;;;8.90;86.10;;;;;;5054766;28;20556;-82
2022/03/13 08:51:13;;;;;;;1.47;0.50;;;9.30;83.60;;;;;;5054739;28;20550;-82
2022/03/13 08:53:44;;;;;;;2.10;0.80;;;9.60;82.70;;;;;;5054902;28;20544;-82
2022/03/13 08:56:27;;;;;;;0.67;0.50;;;9.90;81.50;;;;;;5055100;28;20458;-81
2022/03/13 08:58:59;;;;;;;1.50;1.00;;;10.20;77.80;;;;;;5054823;28;20908;-82
2022/03/13 09:04:22;;;;;;;0.93;0.93;;;10.80;76.60;;;;;;5047567;28;20467;-82
2022/03/13 09:07:04;;;;;;;5.00;0.73;;;11.20;74.80;;;;;;5054897;28;20420;-81
2022/03/13 09:09:33;;;;;;;1.70;0.80;;;11.80;73.40;;;;;;5054651;28;20425;-81
2022/03/13 09:12:02;;;;;;;1.53;1.33;;;12.50;71.20;;;;;;5053933;28;20584;-82
2022/03/13 09:14:29;;;;;;;1.20;1.20;;;13.80;66.80;;;;;;5054704;28;20442;-82
2022/03/13 09:16:56;;;;;;;4.30;1.37;;;14.90;60.30;;;;;;5054475;28;20441;-82
2022/03/13 09:19:23;;;;;;;6.27;1.87;;;16.10;59.40;;;;;;5054522;28;20477;-82
2022/03/13 09:21:50;;;;;;;5.83;2.03;;;17.20;56.00;;;;;;5054304;28;20548;-82
2022/03/13 09:24:16;;;;;;;3.13;1.90;;;18.20;51.70;;;;;;5054536;28;20454;-82
2022/03/13 09:26:45;;;;;;;4.63;2.20;;;19.40;49.60;;;;;;5054702;28;20540;-82
2022/03/13 09:29:14;;;;;;;4.20;2.10;;;20.80;47.50;;;;;;5054406;28;20480;-82
2022/03/13 09:31:43;;;;;;;6.93;4.03;;;22.10;44.10;;;;;;5054083;28;20531;-82
2022/03/13 09:34:10;;;;;;;3.58;2.38;;;22.60;40.90;;;;;;5054161;28;20234;-82
2022/03/13 09:36:37;;;;;;;3.03;2.45;;;23.20;40.40;;;;;;5054358;28;20207;-83
2022/03/13 09:39:05;;;;;;;5.75;2.72;;;23.70;39.50;;;;;;5054211;28;20659;-82
2022/03/13 09:41:41;;;;;;;7.30;3.58;;;24.20;38.80;;;;;;5054053;28;20198;-83
2022/03/13 09:44:21;;;;;;;2.88;2.13;;;24.70;37.70;;;;;;5053905;28;20289;-83
2022/03/13 09:47:02;;;;;;;6.22;3.03;;;25.20;36.10;;;;;;5054389;28;20285;-83
2022/03/13 09:50:17;;;;;;;4.45;2.53;;;25.60;35.80;;;;;;5053791;28;20195;-83
2022/03/13 09:52:57;;;;;;;7.35;3.30;;;25.60;34.50;;;;;;5053619;28;20666;-83
2022/03/13 09:55:37;;;;;;;5.47;2.63;;;25.80;34.60;;;;;;5053766;28;20189;-83
2022/03/13 09:58:08;;;;;;;4.78;3.35;;;25.80;33.70;;;;;;5053611;28;20600;-83
2022/03/13 10:01:00;;;;;;;3.95;2.53;;;25.20;33.20;;;;;;5053350;28;20704;-83
2022/03/13 10:03:33;;;;;;;6.93;2.90;;;24.60;34.50;;;;;;5053495;28;20741;-83
2022/03/13 10:06:00;;;;;;;7.55;2.78;;;24.00;35.20;;;;;;5053891;28;20604;-83
2022/03/13 10:08:29;;;;;;;5.07;2.47;;;23.70;36.50;;;;;;5053720;28;20219;-84
2022/03/13 10:10:56;;;;;;;5.28;3.20;;;23.80;36.20;;;;;;5053246;28;20234;-83
2022/03/13 10:13:35;;;;;;;5.43;2.60;;;23.80;35.30;;;;;;5053709;28;20216;-83
2022/03/13 10:16:04;;;;;;;5.15;2.72;;;23.50;35.70;;;;;;5053684;28;20187;-83
2022/03/13 10:18:31;;;;;;;6.22;2.80;;;23.30;35.90;;;;;;5053508;28;20222;-83
2022/03/13 10:21:00;;;;;;;6.28;2.95;;;23.20;36.10;;;;;;5053463;28;20245;-83
2022/03/13 10:23:27;;;;;;;9.63;3.90;;;23.20;37.40;;;;;;5053151;28;20588;-83
2022/03/13 10:25:54;;;;;;;6.93;3.80;;;23.60;37.30;;;;;;5053454;28;20202;-82
2022/03/13 10:28:23;;;;;;;7.28;3.10;;;23.50;36.30;;;;;;5052499;28;20230;-83
2022/03/13 10:31:08;;;;;;;7.40;3.35;;;23.40;38.20;;;;;;5053153;28;20209;-82
2022/03/13 10:33:55;;;;;;;4.20;2.83;;;23.70;37.00;;;;;;5053165;28;20183;-82
2022/03/13 10:36:25;;;;;;;4.65;1.92;;;24.30;36.30;;;;;;5053343;28;20236;-82
2022/03/13 10:38:52;;;;;;;5.97;3.42;;;25.00;36.10;;;;;;5053566;28;20276;-82
2022/03/13 10:41:20;;;;;;;6.28;2.40;;;26.30;34.80;;;;;;5053168;28;20295;-82
2022/03/13 10:43:58;;;;;;;7.68;3.95;;;27.10;33.00;;;;;;5053360;28;20203;-83
2022/03/13 10:46:27;;;;;;;6.88;3.63;;;27.20;31.60;;;;;;5053009;28;20622;-83
2022/03/13 10:48:55;;;;;;;7.35;3.60;;;26.70;33.00;;;;;;5053084;28;20229;-82
2022/03/13 10:51:33;;;;;;;5.57;2.67;;;27.30;32.60;;;;;;5057621;28;20188;-81
2022/03/13 10:54:00;;;;;;;7.07;3.30;;;27.90;31.40;;;;;;5053197;28;20198;-82
2022/03/13 10:56:27;;;;;;;9.23;3.55;;;28.10;31.30;;;;;;5053010;28;20206;-82
2022/03/13 10:58:54;;;;;;;6.20;3.05;;;28.50;29.80;;;;;;5052863;28;20226;-82
2022/03/13 11:01:23;;;;;;;8.85;2.95;;;28.70;30.00;;;;;;5052672;28;20249;-82
2022/03/13 11:03:53;;;;;;;7.47;3.70;;;29.20;29.40;;;;;;5052991;28;20558;-82
2022/03/13 11:06:21;;;;;;;5.60;2.90;;;29.20;29.10;;;;;;5052890;28;20646;-82
2022/03/13 11:08:52;;;;;;;7.00;3.40;;;28.50;29.40;;;;;;5052603;28;20603;-82
2022/03/13 11:11:19;;;;;;;5.85;3.50;;;26.20;30.60;;;;;;5052638;28;20232;-82
2022/03/13 11:13:50;;;;;;;7.60;2.95;;;24.70;32.00;;;;;;5053015;28;20210;-82
2022/03/13 11:16:22;;;;;;;7.10;3.50;;;23.50;33.30;;;;;;5052978;28;20183;-82
2022/03/13 11:18:52;;;;;;;3.42;1.92;;;22.10;34.60;;;;;;5055990;28;20234;-81
2022/03/13 11:21:20;;;;;;;6.00;2.83;;;21.00;35.80;;;;;;5053495;28;20211;-82
2022/03/13 11:23:47;;;;;;;6.70;3.13;;;20.30;36.60;;;;;;5052929;28;20205;-82
2022/03/13 11:26:16;;;;;;;6.83;2.67;;;19.90;37.80;;;;;;5052534;28;20449;-82
2022/03/13 11:28:44;;;;;;;6.40;2.27;;;19.40;37.80;;;;;;5052467;28;20462;-82
2022/03/13 11:31:34;;;;;;;6.33;2.87;;;18.90;38.50;;;;;;5052662;28;20442;-82
2022/03/13 11:34:13;;;;;;;4.30;1.70;;;18.50;39.20;;;;;;5052465;28;20410;-82
2022/03/13 11:36:41;;;;;;;4.60;2.33;;;18.10;40.40;;;;;;5052842;28;20441;-82
2022/03/13 11:39:09;;;;;;;6.50;2.80;;;18.00;40.20;;;;;;5053403;28;20450;-82
2022/03/13 11:41:41;;;;;;;4.73;2.07;;;17.80;40.50;;;;;;5056217;28;20477;-82
2022/03/13 11:44:40;;;;;;;6.70;2.47;;;17.60;40.90;;;;;;5056411;28;20414;-82
2022/03/13 11:47:26;;;;;;;4.50;2.63;;;17.40;41.40;;;;;;5056303;28;20422;-83
2022/03/13 11:49:54;;;;;;;2.73;2.10;;;17.30;41.30;;;;;;5056385;28;20418;-82
2022/03/13 11:52:32;;;;;;;5.80;1.87;;;17.10;41.40;;;;;;5056087;28;20470;-82
2022/03/13 11:55:00;;;;;;;8.60;2.00;;;17.00;41.10;;;;;;5056358;28;20479;-82
2022/03/13 11:57:29;;;;;;;2.90;2.30;;;16.90;41.30;;;;;;5056232;28;20469;-82
2022/03/13 12:00:28;;;;;;;5.50;2.50;;;17.00;42.00;;;;;;5056135;28;20430;-82
2022/03/13 12:03:07;;;;;;;2.03;0.93;;;16.80;41.60;;;;;;5048981;28;20491;-82
2022/03/13 12:05:35;;;;;;;3.73;2.63;;;16.80;41.60;;;;;;5056138;28;20453;-82
2022/03/13 12:08:06;;;;;;;1.77;1.30;;;16.50;41.30;;;;;;5055772;28;20454;-83
2022/03/13 12:10:35;;;;;;;3.03;1.50;;;16.40;42.20;;;;;;5055846;28;20448;-82
2022/03/13 12:13:05;;;;;;;5.90;2.73;;;16.40;42.80;;;;;;5055917;28;20508;-83
2022/03/13 12:15:32;;;;;;;9.30;2.53;;;16.40;41.70;;;;;;5055625;28;20449;-82
2022/03/13 12:18:01;;;;;;;2.70;0.90;;;16.30;41.70;;;;;;5055607;28;20458;-82
2022/03/13 12:20:31;;;;;;;3.10;2.00;;;16.30;41.90;;;;;;5055893;28;20453;-83
2022/03/13 12:23:00;;;;;;;6.97;2.80;;;16.20;41.90;;;;;;5055643;28;20486;-83
2022/03/13 12:25:30;;;;;;;3.27;1.73;;;16.10;42.60;;;;;;5055713;28;20553;-83
2022/03/13 12:27:57;;;;;;;3.80;1.30;;;16.00;42.70;;;;;;5055593;28;20480;-82
2022/03/13 12:30:26;;;;;;;6.73;1.93;;;16.10;42.60;;;;;;5056180;28;20438;-82
2022/03/13 12:32:58;;;;;;;7.00;2.03;;;16.10;42.90;;;;;;5056216;28;20450;-84
2022/03/13 12:35:26;;;;;;;2.50;1.40;;;16.00;42.40;;;;;;5055640;28;20430;-82
2022/03/13 12:37:55;;;;;;;3.40;1.10;;;15.90;41.80;;;;;;5055150;28;21056;-83
2022/03/13 12:40:24;;;;;;;3.80;1.87;;;15.80;41.70;;;;;;5055255;28;20490;-82
2022/03/13 12:42:54;;;;;;;5.00;2.10;;;15.70;42.20;;;;;;5055348;28;20580;-82
2022/03/13 12:45:22;;;;;;;4.03;1.40;;;15.60;42.30;;;;;;5055330;28;20511;-83
2022/03/13 12:47:55;;;;;;;6.40;1.93;;;15.60;42.00;;;;;;5055173;28;20478;-82
2022/03/13 12:50:25;;;;;;;0.93;0.90;;;15.40;41.70;;;;;;5055180;28;20943;-83
2022/03/13 12:52:58;;;;;;;2.83;1.10;;;15.30;41.80;;;;;;5054959;28;20458;-82
2022/03/13 12:55:26;;;;;;;2.40;1.23;;;15.20;42.40;;;;;;5054881;28;20540;-83
2022/03/13 12:57:57;;;;;;;4.10;1.30;;;15.10;42.00;;;;;;5054896;28;20494;-82
2022/03/13 13:00:32;;;;;;;2.03;1.53;;;15.10;42.30;;;;;;5058444;28;20434;-82
2022/03/13 13:03:00;;;;;;;3.10;0.90;;;15.20;42.20;;;;;;5055477;28;20548;-82
2022/03/13 13:05:28;;;;;;;1.73;1.63;;;15.10;41.80;;;;;;5055084;28;20438;-82